Time;durP1;ratioP1;P1;durP2;ratioP2;P2;SDS_P1;SDS_P2;PMS_P1;PMS_P2;Temp;Humidity;BMP_temperature;BMP_pressure;BME280_temperature;BME280_humidity;BME280_pressure;Samples;Min_cycle;Max_cycle;Signal;HPM_P1;HPM_P2
2023/01/03 00:00:14;;;;;;;2.23;2.03;;;9.30;99.90;;;;;;5009055;28;20172;-66
2023/01/03 00:02:39;;;;;;;6.87;2.70;;;9.30;99.90;;;;;;5023010;28;20242;-67
2023/01/03 00:05:05;;;;;;;5.37;2.20;;;9.20;99.90;;;;;;5012218;28;20957;-68
2023/01/03 00:07:34;;;;;;;4.10;2.90;;;9.10;99.90;;;;;;5024042;28;20178;-68
2023/01/03 00:10:07;;;;;;;3.13;2.23;;;9.10;99.90;;;;;;5011049;28;20417;-68
2023/01/03 00:12:32;;;;;;;3.40;2.40;;;9.20;99.90;;;;;;5024777;28;20878;-67
2023/01/03 00:14:59;;;;;;;3.80;2.30;;;9.20;99.90;;;;;;5007565;28;20545;-68
2023/01/03 00:17:25;;;;;;;3.10;2.53;;;9.20;99.90;;;;;;5004418;28;20167;-68
2023/01/03 00:19:50;;;;;;;2.70;1.97;;;9.20;99.90;;;;;;5021579;28;20409;-68
2023/01/03 00:22:16;;;;;;;2.30;2.10;;;9.30;99.90;;;;;;5010988;28;20173;-67
2023/01/03 00:24:44;;;;;;;4.47;2.00;;;9.30;99.90;;;;;;5023813;28;20289;-69
2023/01/03 00:27:10;;;;;;;2.67;2.13;;;9.40;99.90;;;;;;5021614;28;20405;-69
2023/01/03 00:29:36;;;;;;;5.70;3.13;;;9.40;99.90;;;;;;5023861;28;20473;-67
2023/01/03 00:32:02;;;;;;;3.20;2.40;;;9.40;99.90;;;;;;5022472;28;20452;-68
2023/01/03 00:34:28;;;;;;;5.90;2.30;;;9.40;99.90;;;;;;5024362;28;20836;-68
2023/01/03 00:36:53;;;;;;;4.43;2.70;;;9.40;99.90;;;;;;5022530;28;20416;-68
2023/01/03 00:39:19;;;;;;;2.53;2.33;;;9.40;99.90;;;;;;5023146;28;20888;-69
2023/01/03 00:41:45;;;;;;;3.33;1.80;;;9.40;99.90;;;;;;5023064;28;20207;-67
2023/01/03 00:44:11;;;;;;;2.23;2.03;;;9.40;99.90;;;;;;5036262;23;20681;-70
2023/01/03 00:46:36;;;;;;;2.50;2.30;;;9.50;99.90;;;;;;5011894;28;20176;-70
2023/01/03 00:49:03;;;;;;;3.90;1.97;;;9.50;99.90;;;;;;5019507;28;20433;-70
2023/01/03 00:51:32;;;;;;;4.60;2.13;;;9.50;99.90;;;;;;5015187;28;20676;-71
2023/01/03 00:54:00;;;;;;;2.83;2.57;;;9.50;99.90;;;;;;5020639;28;20476;-70
2023/01/03 00:56:32;;;;;;;2.70;2.37;;;9.50;99.90;;;;;;5022985;28;20435;-70
2023/01/03 00:58:58;;;;;;;2.97;2.10;;;9.50;99.90;;;;;;5022446;28;20414;-70
2023/01/03 01:01:27;;;;;;;3.00;2.70;;;9.50;99.90;;;;;;5022649;28;20435;-71
2023/01/03 01:03:58;;;;;;;7.40;3.27;;;9.50;99.90;;;;;;5020690;28;20443;-70
2023/01/03 01:06:29;;;;;;;4.53;2.33;;;9.40;99.90;;;;;;5022627;28;20418;-70
2023/01/03 01:08:58;;;;;;;3.80;2.27;;;9.30;99.90;;;;;;5021344;28;20418;-67
2023/01/03 01:11:25;;;;;;;7.07;3.40;;;9.20;99.90;;;;;;4999752;28;20458;-70
2023/01/03 01:13:51;;;;;;;2.70;2.13;;;9.10;99.90;;;;;;4999529;28;20516;-70
2023/01/03 01:16:28;;;;;;;2.67;2.47;;;9.10;99.90;;;;;;5006051;28;20999;-69
2023/01/03 01:18:54;;;;;;;3.87;2.00;;;9.00;99.90;;;;;;5024522;28;20402;-71
2023/01/03 01:21:24;;;;;;;6.73;2.90;;;9.00;99.90;;;;;;5000423;28;20420;-72
2023/01/03 01:23:50;;;;;;;4.03;2.03;;;9.00;99.90;;;;;;4999354;28;20454;-71
2023/01/03 01:26:18;;;;;;;2.33;1.70;;;9.00;99.90;;;;;;5000164;28;20423;-70
2023/01/03 01:28:44;;;;;;;3.00;1.73;;;8.90;99.90;;;;;;5001430;28;20950;-72
2023/01/03 01:31:13;;;;;;;3.30;1.90;;;8.90;99.90;;;;;;5005941;28;20463;-70
2023/01/03 01:33:39;;;;;;;2.73;2.00;;;8.90;99.90;;;;;;5000427;28;20202;-68
2023/01/03 01:36:06;;;;;;;1.50;1.30;;;8.80;99.90;;;;;;5000050;28;20428;-69
2023/01/03 01:38:32;;;;;;;1.57;1.47;;;8.80;99.90;;;;;;4999551;28;20539;-68
2023/01/03 01:40:57;;;;;;;2.40;2.20;;;8.80;99.90;;;;;;5002454;28;20416;-69
2023/01/03 01:46:31;;;;;;;2.07;1.70;;;8.70;99.90;;;;;;5000043;28;20222;-68
2023/01/03 01:49:04;;;;;;;4.47;1.13;;;8.70;99.90;;;;;;4999100;28;20421;-69
2023/01/03 01:51:32;;;;;;;2.07;1.97;;;8.60;99.90;;;;;;4999695;28;20501;-69
2023/01/03 01:54:04;;;;;;;2.63;1.60;;;8.60;99.90;;;;;;5000266;28;20452;-68
2023/01/03 01:56:38;;;;;;;3.13;1.60;;;8.60;99.90;;;;;;4999596;28;20507;-69
2023/01/03 01:59:05;;;;;;;2.90;1.80;;;8.50;99.90;;;;;;4999295;28;20411;-68
2023/01/03 02:01:31;;;;;;;3.10;1.60;;;8.40;99.90;;;;;;5000434;28;20473;-68
2023/01/03 02:04:03;;;;;;;2.40;1.30;;;8.40;99.90;;;;;;4999584;28;20821;-69
2023/01/03 02:06:31;;;;;;;1.63;1.47;;;8.30;99.90;;;;;;5007622;28;20176;-69
2023/01/03 02:08:56;;;;;;;1.40;1.20;;;8.30;99.90;;;;;;5024147;28;20407;-68
2023/01/03 02:15:14;;;;;;;1.80;1.70;;;8.20;99.90;;;;;;4992437;28;20204;-69
2023/01/03 02:18:06;;;;;;;1.73;1.60;;;8.10;99.90;;;;;;4998946;28;20434;-69
2023/01/03 02:20:42;;;;;;;3.20;1.30;;;8.00;99.90;;;;;;4998591;28;20932;-69
2023/01/03 02:23:55;;;;;;;2.00;1.70;;;8.00;99.90;;;;;;5010191;28;20431;-68
2023/01/03 02:26:58;;;;;;;2.47;1.40;;;7.80;99.90;;;;;;4932688;29;20880;-68
2023/01/03 02:30:09;;;;;;;4.03;1.87;;;7.70;99.90;;;;;;5019330;28;20792;-68
2023/01/03 02:32:42;;;;;;;7.23;2.03;;;7.70;99.90;;;;;;4987968;28;20459;-71
2023/01/03 02:35:27;;;;;;;1.83;1.50;;;7.80;99.90;;;;;;5000791;28;20453;-70
2023/01/03 02:38:19;;;;;;;2.83;1.63;;;7.70;99.90;;;;;;4999278;28;20460;-68
2023/01/03 02:41:04;;;;;;;1.47;1.37;;;7.60;99.90;;;;;;4970195;28;20428;-68
2023/01/03 02:43:34;;;;;;;3.10;1.40;;;7.50;99.90;;;;;;4998177;28;21004;-69
2023/01/03 02:46:22;;;;;;;2.33;1.50;;;7.40;99.90;;;;;;5021563;28;20432;-68
2023/01/03 02:48:56;;;;;;;1.63;1.33;;;7.40;99.90;;;;;;5001508;28;20420;-69
2023/01/03 02:51:35;;;;;;;1.50;1.40;;;7.40;99.90;;;;;;5004633;28;20984;-68
2023/01/03 02:54:04;;;;;;;1.27;1.17;;;7.40;99.90;;;;;;5013309;28;20461;-69
2023/01/03 02:56:47;;;;;;;2.93;1.80;;;7.20;99.90;;;;;;4998089;28;20531;-68
2023/01/03 02:59:22;;;;;;;5.33;2.33;;;7.10;99.90;;;;;;4997891;28;20787;-69
2023/01/03 03:01:50;;;;;;;2.07;1.40;;;7.20;99.90;;;;;;4998428;28;20467;-69
2023/01/03 03:04:16;;;;;;;1.53;1.43;;;7.20;99.90;;;;;;4998548;28;20514;-69
2023/01/03 03:07:00;;;;;;;5.27;1.70;;;7.00;99.90;;;;;;4998034;28;20423;-69
2023/01/03 03:09:25;;;;;;;3.23;1.60;;;6.90;99.90;;;;;;5015190;28;20520;-69
2023/01/03 03:14:52;;;;;;;1.73;1.40;;;6.80;99.90;;;;;;4997536;28;20212;-70
2023/01/03 03:17:27;;;;;;;1.80;1.70;;;6.80;99.90;;;;;;4997642;28;20437;-69
2023/01/03 03:25:53;;;;;;;2.20;1.40;;;6.60;99.90;;;;;;5018700;28;20410;-69
2023/01/03 03:28:35;;;;;;;2.77;1.60;;;6.70;99.90;;;;;;4992503;28;20433;-70
2023/01/03 03:31:22;;;;;;;3.07;1.90;;;6.80;99.90;;;;;;4996351;28;20933;-69
2023/01/03 03:33:59;;;;;;;4.93;2.80;;;6.60;99.90;;;;;;4997405;28;20482;-69
2023/01/03 03:36:25;;;;;;;4.60;2.53;;;6.70;99.90;;;;;;4994805;28;20455;-69
2023/01/03 03:38:51;;;;;;;2.60;1.57;;;6.70;99.90;;;;;;4996388;28;22504;-70
2023/01/03 03:47:45;;;;;;;3.03;2.20;;;6.50;99.90;;;;;;5000378;28;21158;-70
2023/01/03 03:50:16;;;;;;;2.93;2.00;;;6.50;99.90;;;;;;4999101;28;20421;-69
2023/01/03 03:52:46;;;;;;;10.23;2.10;;;6.60;99.90;;;;;;4996212;28;20474;-69
2023/01/03 03:55:26;;;;;;;1.80;1.70;;;6.50;99.90;;;;;;4997293;28;20477;-68
2023/01/03 03:57:57;;;;;;;3.67;2.77;;;6.40;99.90;;;;;;4997363;28;20427;-68
2023/01/03 04:00:28;;;;;;;2.70;2.40;;;6.40;99.90;;;;;;4998813;28;20428;-70
2023/01/03 04:02:56;;;;;;;5.17;2.30;;;6.40;99.90;;;;;;5017540;28;20426;-69
2023/01/03 04:05:24;;;;;;;1.67;1.57;;;6.30;99.90;;;;;;5001157;28;20853;-68
2023/01/03 04:07:50;;;;;;;3.90;2.07;;;6.30;99.90;;;;;;4977269;28;20432;-69
2023/01/03 04:10:19;;;;;;;3.67;2.03;;;6.10;99.90;;;;;;4998362;28;20428;-69
2023/01/03 04:12:47;;;;;;;2.60;2.40;;;6.10;99.90;;;;;;4982764;28;20774;-69
2023/01/03 04:15:13;;;;;;;6.40;2.20;;;6.10;99.90;;;;;;4996946;28;20794;-69
2023/01/03 04:17:39;;;;;;;2.30;2.10;;;5.90;99.90;;;;;;5001068;28;20475;-70
2023/01/03 04:20:05;;;;;;;8.47;2.50;;;6.00;99.90;;;;;;5010064;28;20422;-68
2023/01/03 04:22:30;;;;;;;5.53;2.47;;;6.10;99.90;;;;;;4997046;28;20595;-69
2023/01/03 04:24:56;;;;;;;9.23;2.70;;;6.00;99.90;;;;;;4994669;28;20570;-68
2023/01/03 04:27:22;;;;;;;4.40;2.13;;;6.00;99.90;;;;;;4994295;28;20172;-68
2023/01/03 04:29:47;;;;;;;2.33;2.07;;;6.00;99.90;;;;;;4997421;28;20564;-69
2023/01/03 04:32:13;;;;;;;4.87;3.40;;;6.10;99.90;;;;;;4994870;28;20215;-69
2023/01/03 04:34:38;;;;;;;3.10;2.20;;;6.00;99.90;;;;;;4995834;28;20204;-68
2023/01/03 04:37:04;;;;;;;2.50;2.03;;;6.10;99.90;;;;;;4993724;28;20173;-68
2023/01/03 04:39:29;;;;;;;3.20;2.07;;;6.00;99.90;;;;;;4997112;28;20584;-69
2023/01/03 04:41:55;;;;;;;2.30;2.10;;;6.00;99.90;;;;;;4997416;28;20521;-68
2023/01/03 04:44:21;;;;;;;6.27;2.80;;;6.00;99.90;;;;;;4975383;28;20220;-70
2023/01/03 04:46:46;;;;;;;3.40;3.10;;;6.10;99.90;;;;;;5001283;28;20180;-68
2023/01/03 04:49:12;;;;;;;6.63;3.07;;;6.00;99.90;;;;;;5028921;28;20256;-69
2023/01/03 04:51:37;;;;;;;6.03;3.00;;;5.90;99.90;;;;;;5000293;28;20391;-68
2023/01/03 04:54:04;;;;;;;5.87;2.60;;;6.00;99.90;;;;;;5002648;28;20197;-68
2023/01/03 04:56:32;;;;;;;6.80;3.10;;;5.90;99.90;;;;;;4998783;28;20173;-70
2023/01/03 04:58:58;;;;;;;3.43;2.53;;;5.90;99.90;;;;;;5004041;28;20481;-70
2023/01/03 05:01:24;;;;;;;3.17;2.77;;;5.80;99.90;;;;;;4997743;28;20870;-70
2023/01/03 05:03:50;;;;;;;3.07;2.13;;;5.90;99.90;;;;;;5001107;28;20465;-70
2023/01/03 05:06:17;;;;;;;3.57;3.23;;;5.90;99.90;;;;;;4997219;28;20482;-69
2023/01/03 05:08:46;;;;;;;3.20;2.63;;;5.80;99.90;;;;;;5000510;28;20423;-69
2023/01/03 05:11:12;;;;;;;2.80;2.37;;;5.70;99.90;;;;;;5000712;28;20440;-69
2023/01/03 05:13:37;;;;;;;6.47;3.40;;;5.60;99.90;;;;;;4998851;28;20475;-70
2023/01/03 05:16:09;;;;;;;5.20;2.97;;;5.60;99.90;;;;;;4999440;28;20200;-69
2023/01/03 05:18:35;;;;;;;5.23;3.00;;;5.50;99.90;;;;;;5003885;28;20590;-70
2023/01/03 05:26:41;;;;;;;3.53;2.30;;;5.70;99.90;;;;;;4996611;28;20577;-70
2023/01/03 05:29:07;;;;;;;5.27;2.60;;;5.60;99.90;;;;;;4999080;28;20736;-69
2023/01/03 05:31:33;;;;;;;2.50;2.30;;;5.60;99.90;;;;;;4997269;28;20586;-71
2023/01/03 05:33:59;;;;;;;2.60;2.37;;;5.50;99.90;;;;;;4997417;28;21009;-68
2023/01/03 05:36:25;;;;;;;3.80;2.27;;;5.60;99.90;;;;;;5001443;28;20187;-68
2023/01/03 05:38:50;;;;;;;2.70;2.50;;;5.60;99.90;;;;;;5001748;28;20256;-70
2023/01/03 05:41:58;;;;;;;3.07;2.40;;;5.70;99.90;;;;;;5004632;28;20909;-68
2023/01/03 05:44:04;;;;;;;3.50;2.63;;;5.70;99.90;;;;;;4998041;28;20209;-68
2023/01/03 05:46:31;;;;;;;2.30;2.10;;;5.70;99.90;;;;;;5000497;28;20443;-68
2023/01/03 05:48:56;;;;;;;5.03;2.37;;;5.70;99.90;;;;;;5002114;28;20459;-68
2023/01/03 05:51:22;;;;;;;2.43;2.33;;;5.60;99.90;;;;;;4998690;28;20913;-69
2023/01/03 05:53:48;;;;;;;4.83;2.70;;;5.40;99.90;;;;;;4997725;28;20188;-69
2023/01/03 05:56:13;;;;;;;9.00;2.90;;;5.50;99.90;;;;;;4996892;28;20243;-69
2023/01/03 05:58:42;;;;;;;3.27;2.90;;;5.50;99.90;;;;;;4995724;28;20187;-69
2023/01/03 06:01:09;;;;;;;2.93;2.60;;;5.50;99.90;;;;;;5002030;28;20228;-72
2023/01/03 06:03:34;;;;;;;2.80;2.60;;;5.40;99.90;;;;;;4996735;28;20467;-67
2023/01/03 06:06:08;;;;;;;4.60;2.63;;;5.30;99.90;;;;;;4999836;28;20434;-67
2023/01/03 06:08:35;;;;;;;5.40;2.90;;;5.40;99.90;;;;;;4997922;28;20177;-69
2023/01/03 06:11:08;;;;;;;5.53;3.53;;;5.40;99.90;;;;;;5001061;28;20430;-67
2023/01/03 06:13:34;;;;;;;5.53;2.57;;;5.40;99.90;;;;;;5001074;28;21042;-68
2023/01/03 06:19:00;;;;;;;4.60;2.17;;;5.30;99.90;;;;;;4996834;28;20946;-74
2023/01/03 06:21:26;;;;;;;3.97;2.60;;;5.30;99.90;;;;;;5001362;28;21142;-68
2023/01/03 06:23:52;;;;;;;9.33;2.47;;;5.40;99.90;;;;;;4997963;28;20443;-73
2023/01/03 06:26:19;;;;;;;4.80;3.00;;;5.20;99.90;;;;;;4996654;28;20427;-68
2023/01/03 06:28:45;;;;;;;3.03;2.73;;;5.10;99.90;;;;;;5026143;28;20423;-68
2023/01/03 06:31:11;;;;;;;3.37;2.50;;;5.10;99.90;;;;;;5004773;28;21361;-68
2023/01/03 06:33:37;;;;;;;2.87;2.67;;;5.10;99.90;;;;;;4997115;28;20483;-68
2023/01/03 06:36:05;;;;;;;4.60;3.03;;;5.00;99.90;;;;;;4995051;28;20176;-69
2023/01/03 06:38:31;;;;;;;4.03;2.87;;;5.00;99.90;;;;;;4998371;28;20415;-69
2023/01/03 06:40:57;;;;;;;10.97;3.10;;;5.10;99.90;;;;;;5015188;28;20416;-67
2023/01/03 06:43:23;;;;;;;3.87;2.83;;;5.20;99.90;;;;;;5014943;28;20458;-67
2023/01/03 06:54:06;;;;;;;3.93;3.03;;;5.10;99.90;;;;;;5016691;28;20439;-69
2023/01/03 06:56:31;;;;;;;6.70;3.70;;;5.10;99.90;;;;;;5017528;28;20963;-71
2023/01/03 06:58:57;;;;;;;3.83;3.53;;;5.20;99.90;;;;;;5045989;23;20510;-67
2023/01/03 07:01:23;;;;;;;6.30;3.23;;;5.10;99.90;;;;;;5018106;28;20259;-67
2023/01/03 07:03:49;;;;;;;7.27;3.60;;;5.10;99.90;;;;;;5017607;28;20183;-67
2023/01/03 07:06:14;;;;;;;3.87;3.30;;;5.00;99.90;;;;;;5018758;28;20411;-67
2023/01/03 07:08:40;;;;;;;10.60;3.87;;;5.10;99.90;;;;;;5010837;28;20207;-67
2023/01/03 07:11:05;;;;;;;5.90;3.90;;;5.10;99.90;;;;;;5007665;28;20180;-67
2023/01/03 07:16:18;;;;;;;9.53;3.90;;;5.10;99.90;;;;;;5005272;28;20394;-67
2023/01/03 07:18:44;;;;;;;4.50;3.83;;;5.10;99.90;;;;;;5001130;28;20527;-66
2023/01/03 07:21:10;;;;;;;5.83;3.50;;;5.00;99.90;;;;;;4994698;28;20515;-68
2023/01/03 07:23:36;;;;;;;6.00;3.80;;;5.00;99.90;;;;;;4994678;28;20765;-68
2023/01/03 07:26:02;;;;;;;6.47;3.50;;;5.00;99.90;;;;;;4997538;28;20515;-66
2023/01/03 07:28:28;;;;;;;4.30;3.73;;;5.00;99.90;;;;;;4998020;28;21072;-68
2023/01/03 07:30:59;;;;;;;5.20;3.60;;;5.00;99.90;;;;;;4998889;28;20424;-68
2023/01/03 07:33:25;;;;;;;6.03;3.60;;;5.10;99.90;;;;;;5000347;28;20667;-68
2023/01/03 07:35:50;;;;;;;5.50;3.77;;;5.00;99.90;;;;;;4995667;28;20458;-68
2023/01/03 07:38:16;;;;;;;9.43;3.40;;;4.90;99.90;;;;;;4999450;28;20192;-68
2023/01/03 07:40:42;;;;;;;4.33;3.17;;;4.80;99.90;;;;;;4994917;28;20676;-68
2023/01/03 07:45:56;;;;;;;5.03;3.90;;;5.30;99.90;;;;;;4997031;28;20235;-67
2023/01/03 07:48:21;;;;;;;4.77;3.40;;;5.40;99.90;;;;;;5000918;28;20470;-67
2023/01/03 07:50:47;;;;;;;6.83;3.67;;;5.60;99.90;;;;;;4994519;28;20268;-68
2023/01/03 07:53:15;;;;;;;4.00;3.60;;;5.50;99.90;;;;;;4994940;28;20207;-68
2023/01/03 07:55:42;;;;;;;9.03;4.10;;;5.50;99.90;;;;;;5001250;28;20521;-68
2023/01/03 07:58:07;;;;;;;6.93;5.43;;;5.50;99.90;;;;;;4996550;28;20474;-67
2023/01/03 08:00:33;;;;;;;5.30;3.23;;;5.50;99.90;;;;;;4998196;28;20506;-68
2023/01/03 08:02:58;;;;;;;9.93;4.70;;;5.50;99.90;;;;;;5000284;28;20173;-68
2023/01/03 08:05:24;;;;;;;10.80;4.40;;;5.60;99.90;;;;;;4986104;28;20264;-68
2023/01/03 08:07:51;;;;;;;5.27;4.57;;;5.60;99.90;;;;;;4977245;28;20201;-67
2023/01/03 08:13:17;;;;;;;5.00;3.90;;;5.30;99.90;;;;;;4998162;28;21013;-68
2023/01/03 08:15:54;;;;;;;6.13;5.40;;;5.30;99.90;;;;;;4996214;28;20415;-68
2023/01/03 08:18:25;;;;;;;5.17;4.67;;;5.30;99.90;;;;;;4998996;28;20422;-68
2023/01/03 08:20:53;;;;;;;4.80;3.50;;;5.30;99.90;;;;;;4994059;28;20397;-68
2023/01/03 08:23:18;;;;;;;8.93;3.50;;;5.30;99.90;;;;;;5007285;28;20424;-68
2023/01/03 08:25:44;;;;;;;7.83;3.07;;;5.30;99.90;;;;;;4999686;28;20412;-68
2023/01/03 08:28:10;;;;;;;11.10;10.27;;;5.30;99.90;;;;;;4986650;28;20823;-68
2023/01/03 08:30:41;;;;;;;5.73;3.80;;;5.30;99.90;;;;;;5000150;28;20227;-69
2023/01/03 08:33:11;;;;;;;3.97;3.33;;;5.40;99.90;;;;;;4999143;28;20212;-67
2023/01/03 08:35:40;;;;;;;4.10;3.07;;;5.50;99.90;;;;;;5004932;28;20419;-68
2023/01/03 08:38:09;;;;;;;2.90;2.57;;;5.50;99.90;;;;;;4992668;28;20958;-68
2023/01/03 08:40:39;;;;;;;5.40;3.43;;;5.60;99.90;;;;;;4977583;28;20419;-67
2023/01/03 08:43:05;;;;;;;5.50;2.63;;;5.70;99.90;;;;;;4983520;28;20415;-68
2023/01/03 08:45:31;;;;;;;2.80;2.50;;;5.80;99.90;;;;;;4983054;28;20423;-68
2023/01/03 08:48:00;;;;;;;5.03;2.27;;;5.80;99.90;;;;;;5000782;28;20442;-68
2023/01/03 08:50:26;;;;;;;4.20;2.83;;;5.90;99.90;;;;;;4999765;28;20468;-67
2023/01/03 08:52:52;;;;;;;4.93;2.83;;;6.00;99.90;;;;;;4992119;28;20463;-67
2023/01/03 08:55:18;;;;;;;4.80;2.50;;;6.00;99.90;;;;;;4995961;28;20441;-68
2023/01/03 08:57:43;;;;;;;4.40;2.67;;;6.00;99.90;;;;;;4996408;28;20550;-69
2023/01/03 09:00:10;;;;;;;3.40;3.10;;;6.10;99.90;;;;;;4999990;28;20524;-68
2023/01/03 09:02:35;;;;;;;3.70;2.80;;;6.10;99.90;;;;;;4995293;28;20179;-68
2023/01/03 09:05:01;;;;;;;3.67;3.33;;;6.10;99.90;;;;;;5001445;28;20420;-69
2023/01/03 09:07:27;;;;;;;4.33;2.40;;;6.20;99.90;;;;;;4983610;28;20209;-69
2023/01/03 09:09:52;;;;;;;5.30;4.73;;;6.20;99.90;;;;;;4994783;28;20288;-68
2023/01/03 09:12:18;;;;;;;6.53;2.80;;;6.20;99.90;;;;;;4998902;28;20203;-68
2023/01/03 09:14:43;;;;;;;4.40;2.70;;;6.10;99.90;;;;;;5001363;28;20263;-68
2023/01/03 09:17:09;;;;;;;6.10;3.23;;;6.20;99.90;;;;;;5001454;28;20169;-68
2023/01/03 09:19:35;;;;;;;3.27;3.00;;;6.20;99.90;;;;;;4995190;28;20174;-69
2023/01/03 09:22:01;;;;;;;7.10;3.10;;;6.20;99.90;;;;;;5003278;28;20180;-68
2023/01/03 09:24:26;;;;;;;6.23;3.03;;;6.20;99.90;;;;;;5004076;28;20181;-69
2023/01/03 09:26:52;;;;;;;11.37;3.77;;;6.20;99.90;;;;;;5000446;28;20885;-68
2023/01/03 09:29:17;;;;;;;10.97;3.70;;;6.20;99.90;;;;;;5008588;28;20192;-68
2023/01/03 09:31:43;;;;;;;5.13;3.63;;;6.20;99.90;;;;;;5001258;28;20204;-68
2023/01/03 09:34:09;;;;;;;7.80;2.83;;;6.20;99.90;;;;;;4998299;28;20173;-68
2023/01/03 09:36:37;;;;;;;5.20;2.80;;;6.20;99.90;;;;;;5006664;28;20176;-68
2023/01/03 09:39:04;;;;;;;5.20;2.43;;;6.30;99.90;;;;;;4999839;28;20584;-68
2023/01/03 09:41:29;;;;;;;3.73;3.10;;;6.30;99.90;;;;;;4995529;28;20542;-68
2023/01/03 09:44:01;;;;;;;5.60;3.00;;;6.30;99.90;;;;;;5008829;28;20424;-67
2023/01/03 09:46:29;;;;;;;5.03;3.07;;;6.30;99.90;;;;;;5002936;28;20255;-67
2023/01/03 09:48:56;;;;;;;3.50;3.00;;;6.40;99.90;;;;;;5006203;28;20804;-68
2023/01/03 10:03:42;;;;;;;4.43;3.27;;;6.40;99.90;;;;;;4995547;28;20949;-69
2023/01/03 10:06:33;;;;;;;5.80;3.53;;;6.50;99.90;;;;;;5005613;28;20496;-69
2023/01/03 10:09:10;;;;;;;3.53;3.00;;;6.50;99.90;;;;;;4996454;28;20432;-70
2023/01/03 10:11:47;;;;;;;5.43;3.77;;;6.60;99.90;;;;;;4999213;28;20930;-68
2023/01/03 10:14:29;;;;;;;3.90;3.50;;;6.70;99.90;;;;;;5002726;28;20496;-68
2023/01/03 10:17:13;;;;;;;4.20;2.80;;;6.70;99.90;;;;;;4997473;28;20531;-68
2023/01/03 10:19:45;;;;;;;7.50;2.93;;;6.70;99.90;;;;;;5001931;28;20403;-68
2023/01/03 10:22:19;;;;;;;6.30;2.73;;;6.70;99.90;;;;;;5009243;28;20892;-68
2023/01/03 10:25:03;;;;;;;4.20;2.73;;;6.70;99.90;;;;;;4993737;28;20824;-67
2023/01/03 10:27:33;;;;;;;3.20;2.50;;;6.80;99.90;;;;;;5004451;28;20857;-69
2023/01/03 10:30:05;;;;;;;4.00;2.73;;;6.80;99.90;;;;;;5004306;28;20408;-68
2023/01/03 10:33:10;;;;;;;4.30;2.70;;;6.80;99.90;;;;;;5003613;28;20524;-68
2023/01/03 10:35:36;;;;;;;10.60;3.47;;;6.90;99.90;;;;;;4961768;28;20424;-68
2023/01/03 10:38:02;;;;;;;5.20;3.03;;;7.00;99.90;;;;;;5005167;28;21016;-68
2023/01/03 10:40:36;;;;;;;8.10;3.53;;;7.10;99.90;;;;;;4999363;28;20431;-68
2023/01/03 10:43:15;;;;;;;7.83;3.37;;;7.20;99.90;;;;;;4995258;28;20420;-68
2023/01/03 10:45:58;;;;;;;8.10;3.67;;;7.30;99.90;;;;;;5001948;28;20487;-68
2023/01/03 10:48:32;;;;;;;10.13;4.50;;;7.40;99.90;;;;;;5004393;28;20973;-68
2023/01/03 10:50:58;;;;;;;9.57;3.30;;;7.40;99.90;;;;;;4998552;28;20411;-68
2023/01/03 10:53:24;;;;;;;6.63;3.03;;;7.30;99.90;;;;;;5001820;28;20919;-68
2023/01/03 10:55:54;;;;;;;4.07;2.87;;;7.40;99.90;;;;;;5004971;28;20228;-68
2023/01/03 10:58:25;;;;;;;5.87;2.90;;;7.40;99.90;;;;;;4996711;28;20208;-68
2023/01/03 11:00:53;;;;;;;6.87;3.80;;;7.30;99.90;;;;;;5000801;28;20777;-68
2023/01/03 11:03:25;;;;;;;8.43;3.93;;;7.20;99.90;;;;;;5004437;28;20937;-69
2023/01/03 11:06:00;;;;;;;4.37;3.20;;;7.40;99.90;;;;;;4998196;28;20425;-67
2023/01/03 11:08:46;;;;;;;4.43;3.50;;;7.60;99.90;;;;;;4998711;28;20964;-68
2023/01/03 11:11:33;;;;;;;11.37;4.07;;;7.30;99.90;;;;;;5001240;28;20412;-68
2023/01/03 11:14:13;;;;;;;8.43;4.23;;;7.30;99.90;;;;;;5000093;28;20417;-68
2023/01/03 11:16:39;;;;;;;5.07;4.27;;;7.30;99.90;;;;;;4994521;28;20408;-67
2023/01/03 11:19:05;;;;;;;5.93;4.30;;;7.40;99.90;;;;;;4998727;28;20436;-68
2023/01/03 11:21:59;;;;;;;4.03;3.47;;;7.60;99.90;;;;;;5003472;28;20176;-68
2023/01/03 11:24:30;;;;;;;5.03;3.70;;;7.80;99.90;;;;;;5001202;28;20408;-68
2023/01/03 11:27:03;;;;;;;7.90;3.50;;;7.60;99.90;;;;;;5002650;28;20433;-68
2023/01/03 11:30:05;;;;;;;4.20;2.83;;;7.80;99.90;;;;;;4992868;28;20532;-68
2023/01/03 11:32:52;;;;;;;5.30;3.70;;;7.70;99.90;;;;;;5001132;28;21111;-68
2023/01/03 11:35:52;;;;;;;5.50;3.90;;;7.50;99.90;;;;;;4995623;28;20412;-68
2023/01/03 11:38:27;;;;;;;6.93;4.00;;;7.50;99.90;;;;;;5000321;28;20428;-68
2023/01/03 11:41:29;;;;;;;6.30;3.70;;;7.60;99.90;;;;;;5003111;28;20401;-68
2023/01/03 11:44:31;;;;;;;4.10;3.70;;;7.50;99.90;;;;;;4999043;28;20465;-69
2023/01/03 11:47:28;;;;;;;5.63;4.00;;;7.40;99.90;;;;;;5001288;28;20759;-68
2023/01/03 11:50:12;;;;;;;5.03;3.10;;;7.30;99.90;;;;;;4991612;28;20427;-68
2023/01/03 11:52:43;;;;;;;4.20;3.80;;;7.10;99.90;;;;;;4999773;28;20480;-68
2023/01/03 11:55:27;;;;;;;4.60;4.20;;;7.20;99.90;;;;;;5004906;28;20420;-68
2023/01/03 11:58:02;;;;;;;7.43;3.80;;;7.40;99.90;;;;;;4996406;28;20540;-68
2023/01/03 12:00:35;;;;;;;10.57;4.23;;;7.60;99.90;;;;;;4989177;28;20425;-68
2023/01/03 12:03:43;;;;;;;7.07;3.13;;;7.30;99.90;;;;;;5002976;28;20448;-68
2023/01/03 12:06:25;;;;;;;4.50;3.30;;;7.30;99.90;;;;;;5001865;28;20411;-68
2023/01/03 12:09:17;;;;;;;3.87;3.00;;;7.30;99.90;;;;;;4998586;28;20436;-68
2023/01/03 12:12:01;;;;;;;3.43;3.13;;;7.30;99.90;;;;;;4998918;28;20499;-68
2023/01/03 12:14:36;;;;;;;8.07;3.40;;;7.50;99.90;;;;;;4998447;28;20503;-68
2023/01/03 12:17:05;;;;;;;4.50;3.20;;;7.40;99.90;;;;;;4998699;28;20438;-68
2023/01/03 12:19:48;;;;;;;4.93;3.27;;;7.40;99.90;;;;;;5000197;28;20428;-68
2023/01/03 12:22:21;;;;;;;4.17;3.00;;;7.40;99.90;;;;;;5005138;28;20414;-68
2023/01/03 12:24:56;;;;;;;7.60;3.00;;;7.30;99.90;;;;;;5004183;28;20437;-68
2023/01/03 12:27:37;;;;;;;4.03;3.43;;;7.20;99.90;;;;;;5000945;28;20399;-68
2023/01/03 12:30:22;;;;;;;5.73;3.20;;;7.30;99.90;;;;;;4999058;28;20469;-68
2023/01/03 12:33:20;;;;;;;3.83;3.03;;;7.40;99.90;;;;;;4999803;28;20990;-68
2023/01/03 12:35:55;;;;;;;3.20;2.67;;;7.40;99.90;;;;;;4962897;28;20519;-69
2023/01/03 12:38:28;;;;;;;3.00;2.67;;;7.50;99.90;;;;;;5001738;28;20482;-67
2023/01/03 12:41:06;;;;;;;4.17;2.40;;;7.30;99.90;;;;;;4997454;28;20421;-68
2023/01/03 12:43:44;;;;;;;4.23;2.70;;;7.30;99.90;;;;;;5002598;28;20412;-68
2023/01/03 12:46:12;;;;;;;6.20;2.87;;;7.30;99.90;;;;;;5001082;28;20395;-69
2023/01/03 12:49:20;;;;;;;2.93;2.53;;;7.40;99.90;;;;;;5000826;28;20456;-68
2023/01/03 12:51:46;;;;;;;4.53;3.03;;;7.50;99.90;;;;;;4947534;29;20996;-68
2023/01/03 12:54:35;;;;;;;5.83;3.50;;;7.30;99.90;;;;;;4992742;28;20512;-68
2023/01/03 12:57:13;;;;;;;4.23;2.30;;;7.30;99.90;;;;;;5010415;28;20648;-69
2023/01/03 12:59:49;;;;;;;3.97;2.40;;;7.10;99.90;;;;;;5042570;23;20496;-67
2023/01/03 13:02:23;;;;;;;4.00;2.60;;;7.20;99.90;;;;;;5030592;28;20423;-66
2023/01/03 13:04:55;;;;;;;4.10;2.43;;;7.30;99.90;;;;;;5031170;28;20923;-68
2023/01/03 13:07:26;;;;;;;5.93;2.40;;;7.20;99.90;;;;;;5031192;28;20414;-67
2023/01/03 13:10:07;;;;;;;3.47;2.13;;;7.20;99.90;;;;;;5034567;28;20795;-67
2023/01/03 13:12:34;;;;;;;6.37;2.93;;;7.20;99.90;;;;;;5032740;28;20461;-65
2023/01/03 13:15:02;;;;;;;4.83;2.73;;;7.20;99.90;;;;;;5032243;28;20411;-67
2023/01/03 13:17:45;;;;;;;4.33;2.63;;;7.10;99.90;;;;;;5037182;28;20418;-67
2023/01/03 13:20:33;;;;;;;5.90;1.90;;;7.30;99.90;;;;;;5032678;28;20426;-67
2023/01/03 13:23:01;;;;;;;12.97;3.27;;;7.20;99.90;;;;;;5035709;28;20426;-66
2023/01/03 13:26:05;;;;;;;7.83;2.50;;;7.10;99.90;;;;;;5031574;28;20433;-69
2023/01/03 13:28:38;;;;;;;3.10;2.53;;;7.30;99.90;;;;;;5033054;28;20475;-68
2023/01/03 13:31:19;;;;;;;4.80;3.37;;;7.30;99.90;;;;;;5035396;28;20414;-67
2023/01/03 13:33:55;;;;;;;6.30;3.07;;;7.30;99.90;;;;;;5035302;28;20666;-68
2023/01/03 13:36:22;;;;;;;4.97;3.13;;;7.20;99.90;;;;;;5030965;28;20804;-67
2023/01/03 13:38:47;;;;;;;3.40;3.07;;;7.10;99.90;;;;;;5035519;28;20422;-66
2023/01/03 13:41:37;;;;;;;6.27;3.20;;;7.00;99.90;;;;;;5036083;28;20436;-67
2023/01/03 13:44:20;;;;;;;4.60;3.10;;;7.00;99.90;;;;;;5023765;28;20209;-67
2023/01/03 13:46:46;;;;;;;3.20;2.57;;;6.90;99.90;;;;;;5013688;28;20410;-67
2023/01/03 13:49:22;;;;;;;7.40;6.50;;;6.90;99.90;;;;;;5034366;28;20426;-67
2023/01/03 13:51:50;;;;;;;4.27;2.70;;;6.90;99.90;;;;;;5036008;28;20453;-67
2023/01/03 13:54:15;;;;;;;6.27;3.20;;;6.90;99.90;;;;;;5033849;28;20501;-67
2023/01/03 13:56:44;;;;;;;7.17;4.90;;;6.80;99.90;;;;;;5035669;28;20479;-66
2023/01/03 13:59:13;;;;;;;3.97;2.57;;;6.80;99.90;;;;;;5035375;28;20203;-68
2023/01/03 14:01:44;;;;;;;4.90;2.80;;;6.70;99.90;;;;;;5036226;28;20421;-68
2023/01/03 14:04:13;;;;;;;5.90;3.20;;;6.70;99.90;;;;;;5035649;28;20784;-68
2023/01/03 14:07:03;;;;;;;5.60;2.70;;;6.70;99.90;;;;;;5035549;28;20909;-68
2023/01/03 14:09:55;;;;;;;6.33;3.87;;;6.70;99.90;;;;;;5034608;28;20508;-68
2023/01/03 14:12:55;;;;;;;3.93;3.30;;;6.60;99.90;;;;;;5034642;28;20465;-68
2023/01/03 14:15:24;;;;;;;3.80;3.13;;;6.60;99.90;;;;;;5029828;28;20473;-68
2023/01/03 14:17:54;;;;;;;3.07;2.77;;;6.50;99.90;;;;;;5033100;28;20418;-69
2023/01/03 14:20:27;;;;;;;3.70;2.70;;;6.50;99.90;;;;;;5026633;28;20489;-69